Decoded Metar for OMDB (DUBAI in UNITED ARAB EMIRATES) (IATA:DXB) | Meteo·Mobile Aviation Weather
aviador You're here:

OMDB Decoded Metar

DUBAI in UNITED ARAB EMIRATES
Report Time2018-10-23 11:00:00
UTC Time2018-10-23 11:41:37
Flight Rules mvfr MVFR
Wind260° at 13 kt
W.Decomp.*RWY 30: 9.8 kt HW 8.5 kt LCW
W.Rank260° ranks 15
Current wind is above 260° avg. (7.9)
Visibility9999 m
Phenomena:N/A
Clouds:Broken 025 Hf
Expected CloudBase > 3,600 ft AGL from Temp-Dew spread
Ceiling2,500 ft
Temp33°C (ISA +18)
Dew Point24°C (59% RH)
Heat Index39.2°C
QNH1013 hPa
Density Alt2,461 ft
Elevation16 ft
Report Wrong Elevation
Raw Report
METAR OMDB 231100Z 26013KT 220V290 9999 BKN025 33/24 Q1013 NOSIG=

Extra information for OMDB:More info

Metar Taf Metar & Taf Last 4 Metars F.Rules Stats Wind Profile Meteogram Temp Stats Airport Information Weather charts Add Link Nearby VenuesMetar ALERT Operation Metar Decoded Social comments